sensor_id;sensor_type;location;lat;lon;timestamp;temperature;humidity
17080;DHT22;8655;57.106;-2.088;2022-11-15T00:01:35;17.60;75.00
17080;DHT22;8655;57.106;-2.088;2022-11-15T00:04:03;17.60;75.60
17080;DHT22;8655;57.106;-2.088;2022-11-15T00:06:29;17.60;74.90
17080;DHT22;8655;57.106;-2.088;2022-11-15T00:08:57;17.60;74.90
17080;DHT22;8655;57.106;-2.088;2022-11-15T00:11:23;17.60;74.90
17080;DHT22;8655;57.106;-2.088;2022-11-15T00:13:49;17.60;74.90
17080;DHT22;8655;57.106;-2.088;2022-11-15T00:16:14;17.60;74.90
17080;DHT22;8655;57.106;-2.088;2022-11-15T00:18:40;17.60;74.90
17080;DHT22;8655;57.106;-2.088;2022-11-15T00:21:10;17.50;74.80
17080;DHT22;8655;57.106;-2.088;2022-11-15T00:23:36;17.50;74.80
17080;DHT22;8655;57.106;-2.088;2022-11-15T00:26:01;17.60;74.90
17080;DHT22;8655;57.106;-2.088;2022-11-15T00:28:27;17.50;74.80
17080;DHT22;8655;57.106;-2.088;2022-11-15T00:30:53;17.50;74.70
17080;DHT22;8655;57.106;-2.088;2022-11-15T00:33:18;17.50;74.70
17080;DHT22;8655;57.106;-2.088;2022-11-15T00:35:44;17.50;74.80
17080;DHT22;8655;57.106;-2.088;2022-11-15T00:38:10;17.50;74.70
17080;DHT22;8655;57.106;-2.088;2022-11-15T00:40:36;17.50;74.70
17080;DHT22;8655;57.106;-2.088;2022-11-15T00:43:02;17.50;74.70
17080;DHT22;8655;57.106;-2.088;2022-11-15T00:45:27;17.50;74.70
17080;DHT22;8655;57.106;-2.088;2022-11-15T00:47:53;17.50;74.70
17080;DHT22;8655;57.106;-2.088;2022-11-15T00:50:19;17.50;74.70
17080;DHT22;8655;57.106;-2.088;2022-11-15T00:52:45;17.50;74.70
17080;DHT22;8655;57.106;-2.088;2022-11-15T00:55:17;17.50;74.70
17080;DHT22;8655;57.106;-2.088;2022-11-15T00:57:43;17.50;74.70
17080;DHT22;8655;57.106;-2.088;2022-11-15T01:00:10;17.50;74.70
17080;DHT22;8655;57.106;-2.088;2022-11-15T01:02:36;17.50;74.70
17080;DHT22;8655;57.106;-2.088;2022-11-15T01:05:02;17.50;74.70
17080;DHT22;8655;57.106;-2.088;2022-11-15T01:07:28;17.50;74.70
17080;DHT22;8655;57.106;-2.088;2022-11-15T01:09:53;17.50;74.70
17080;DHT22;8655;57.106;-2.088;2022-11-15T01:12:19;17.50;74.60
17080;DHT22;8655;57.106;-2.088;2022-11-15T01:14:44;17.50;74.60
17080;DHT22;8655;57.106;-2.088;2022-11-15T01:17:10;17.40;74.50
17080;DHT22;8655;57.106;-2.088;2022-11-15T01:19:36;17.50;74.60
17080;DHT22;8655;57.106;-2.088;2022-11-15T01:22:01;17.40;74.50
17080;DHT22;8655;57.106;-2.088;2022-11-15T01:24:27;17.50;74.60
17080;DHT22;8655;57.106;-2.088;2022-11-15T01:26:53;17.50;74.60
17080;DHT22;8655;57.106;-2.088;2022-11-15T01:29:20;17.50;74.60
17080;DHT22;8655;57.106;-2.088;2022-11-15T01:31:45;17.40;74.50
17080;DHT22;8655;57.106;-2.088;2022-11-15T01:34:12;17.40;74.50
17080;DHT22;8655;57.106;-2.088;2022-11-15T01:36:37;17.50;74.50
17080;DHT22;8655;57.106;-2.088;2022-11-15T01:39:03;17.40;74.50
17080;DHT22;8655;57.106;-2.088;2022-11-15T01:41:32;17.40;74.50
17080;DHT22;8655;57.106;-2.088;2022-11-15T01:46:56;17.40;74.50
17080;DHT22;8655;57.106;-2.088;2022-11-15T01:49:24;17.40;74.50
17080;DHT22;8655;57.106;-2.088;2022-11-15T01:51:50;17.40;74.50
17080;DHT22;8655;57.106;-2.088;2022-11-15T01:54:19;17.40;74.50
17080;DHT22;8655;57.106;-2.088;2022-11-15T01:56:56;17.40;74.50
17080;DHT22;8655;57.106;-2.088;2022-11-15T01:59:23;17.40;74.50
17080;DHT22;8655;57.106;-2.088;2022-11-15T02:01:49;17.40;74.40
17080;DHT22;8655;57.106;-2.088;2022-11-15T02:04:35;17.40;74.50
17080;DHT22;8655;57.106;-2.088;2022-11-15T02:07:04;17.40;74.40
17080;DHT22;8655;57.106;-2.088;2022-11-15T02:09:30;17.40;74.50
17080;DHT22;8655;57.106;-2.088;2022-11-15T02:11:56;17.40;74.50
17080;DHT22;8655;57.106;-2.088;2022-11-15T02:14:23;17.40;74.40
17080;DHT22;8655;57.106;-2.088;2022-11-15T02:30:50;17.30;74.30
17080;DHT22;8655;57.106;-2.088;2022-11-15T02:33:33;17.40;74.40
17080;DHT22;8655;57.106;-2.088;2022-11-15T02:41:22;17.40;74.40
17080;DHT22;8655;57.106;-2.088;2022-11-15T02:43:59;17.30;74.30
17080;DHT22;8655;57.106;-2.088;2022-11-15T02:46:40;17.30;74.30
17080;DHT22;8655;57.106;-2.088;2022-11-15T02:49:27;17.30;74.30
17080;DHT22;8655;57.106;-2.088;2022-11-15T02:51:55;17.30;74.30
17080;DHT22;8655;57.106;-2.088;2022-11-15T02:54:23;17.30;74.30
17080;DHT22;8655;57.106;-2.088;2022-11-15T02:56:50;17.30;74.30
17080;DHT22;8655;57.106;-2.088;2022-11-15T02:59:33;17.30;74.30
17080;DHT22;8655;57.106;-2.088;2022-11-15T03:02:18;17.30;74.30
17080;DHT22;8655;57.106;-2.088;2022-11-15T03:10:09;17.30;74.20
17080;DHT22;8655;57.106;-2.088;2022-11-15T03:12:55;17.30;74.20
17080;DHT22;8655;57.106;-2.088;2022-11-15T03:15:27;17.30;74.20
17080;DHT22;8655;57.106;-2.088;2022-11-15T03:18:04;17.30;74.20
17080;DHT22;8655;57.106;-2.088;2022-11-15T03:20:32;17.30;74.20
17080;DHT22;8655;57.106;-2.088;2022-11-15T03:23:18;17.30;74.30
17080;DHT22;8655;57.106;-2.088;2022-11-15T03:25:47;17.30;74.20
17080;DHT22;8655;57.106;-2.088;2022-11-15T03:28:19;17.30;74.20
17080;DHT22;8655;57.106;-2.088;2022-11-15T03:30:46;17.30;74.20
17080;DHT22;8655;57.106;-2.088;2022-11-15T03:33:13;17.30;74.20
17080;DHT22;8655;57.106;-2.088;2022-11-15T03:35:43;17.30;74.20
17080;DHT22;8655;57.106;-2.088;2022-11-15T03:38:36;17.30;74.20
17080;DHT22;8655;57.106;-2.088;2022-11-15T03:41:15;17.30;74.20
17080;DHT22;8655;57.106;-2.088;2022-11-15T03:43:54;17.30;74.20
17080;DHT22;8655;57.106;-2.088;2022-11-15T03:46:43;17.30;74.20
17080;DHT22;8655;57.106;-2.088;2022-11-15T03:49:17;17.30;74.10
17080;DHT22;8655;57.106;-2.088;2022-11-15T03:51:44;17.30;74.20
17080;DHT22;8655;57.106;-2.088;2022-11-15T03:54:12;17.30;74.20
17080;DHT22;8655;57.106;-2.088;2022-11-15T03:56:37;17.30;74.20
17080;DHT22;8655;57.106;-2.088;2022-11-15T03:59:03;17.30;74.20
17080;DHT22;8655;57.106;-2.088;2022-11-15T04:01:29;17.30;74.20
17080;DHT22;8655;57.106;-2.088;2022-11-15T04:03:54;17.30;74.20
17080;DHT22;8655;57.106;-2.088;2022-11-15T04:06:20;17.20;74.10
17080;DHT22;8655;57.106;-2.088;2022-11-15T04:08:46;17.30;74.20
17080;DHT22;8655;57.106;-2.088;2022-11-15T04:11:11;17.30;74.10
17080;DHT22;8655;57.106;-2.088;2022-11-15T04:13:37;17.20;74.00
17080;DHT22;8655;57.106;-2.088;2022-11-15T04:16:03;17.30;74.10
17080;DHT22;8655;57.106;-2.088;2022-11-15T04:18:28;17.20;74.10
17080;DHT22;8655;57.106;-2.088;2022-11-15T04:20:54;17.20;74.00
17080;DHT22;8655;57.106;-2.088;2022-11-15T04:23:38;17.20;74.00
17080;DHT22;8655;57.106;-2.088;2022-11-15T04:26:33;17.20;74.00
17080;DHT22;8655;57.106;-2.088;2022-11-15T04:28:58;17.20;74.00
17080;DHT22;8655;57.106;-2.088;2022-11-15T04:31:43;17.20;74.00
17080;DHT22;8655;57.106;-2.088;2022-11-15T04:34:08;17.20;74.00
17080;DHT22;8655;57.106;-2.088;2022-11-15T04:36:34;17.20;74.00
17080;DHT22;8655;57.106;-2.088;2022-11-15T04:39:18;17.20;74.00
17080;DHT22;8655;57.106;-2.088;2022-11-15T04:41:44;17.20;74.00
17080;DHT22;8655;57.106;-2.088;2022-11-15T04:44:09;17.20;74.00
17080;DHT22;8655;57.106;-2.088;2022-11-15T04:46:35;17.20;74.10
17080;DHT22;8655;57.106;-2.088;2022-11-15T04:49:01;17.20;74.00
17080;DHT22;8655;57.106;-2.088;2022-11-15T04:51:26;17.20;74.00
17080;DHT22;8655;57.106;-2.088;2022-11-15T04:53:52;17.20;74.00
17080;DHT22;8655;57.106;-2.088;2022-11-15T04:56:18;17.20;74.00
17080;DHT22;8655;57.106;-2.088;2022-11-15T04:58:44;17.20;74.00
17080;DHT22;8655;57.106;-2.088;2022-11-15T05:01:10;17.20;74.00
17080;DHT22;8655;57.106;-2.088;2022-11-15T05:03:37;17.20;74.00
17080;DHT22;8655;57.106;-2.088;2022-11-15T05:06:21;17.20;74.00
17080;DHT22;8655;57.106;-2.088;2022-11-15T05:08:47;17.20;74.00
17080;DHT22;8655;57.106;-2.088;2022-11-15T05:11:13;17.20;74.00
17080;DHT22;8655;57.106;-2.088;2022-11-15T05:13:39;17.20;74.00
17080;DHT22;8655;57.106;-2.088;2022-11-15T05:16:04;17.20;74.00
17080;DHT22;8655;57.106;-2.088;2022-11-15T05:18:30;17.20;74.00
17080;DHT22;8655;57.106;-2.088;2022-11-15T05:20:56;17.20;74.00
17080;DHT22;8655;57.106;-2.088;2022-11-15T05:23:21;17.20;74.00
17080;DHT22;8655;57.106;-2.088;2022-11-15T05:25:47;17.20;74.00
17080;DHT22;8655;57.106;-2.088;2022-11-15T05:28:13;17.20;74.00
17080;DHT22;8655;57.106;-2.088;2022-11-15T05:30:38;17.20;74.00
17080;DHT22;8655;57.106;-2.088;2022-11-15T05:33:04;17.20;74.00
17080;DHT22;8655;57.106;-2.088;2022-11-15T05:35:37;17.20;74.00
17080;DHT22;8655;57.106;-2.088;2022-11-15T05:38:04;17.20;74.00
17080;DHT22;8655;57.106;-2.088;2022-11-15T05:40:30;17.20;74.00
17080;DHT22;8655;57.106;-2.088;2022-11-15T05:42:57;17.20;74.00
17080;DHT22;8655;57.106;-2.088;2022-11-15T05:45:23;17.20;74.00
17080;DHT22;8655;57.106;-2.088;2022-11-15T05:47:49;17.20;74.00
17080;DHT22;8655;57.106;-2.088;2022-11-15T05:50:16;17.10;73.90
17080;DHT22;8655;57.106;-2.088;2022-11-15T05:52:43;17.20;74.00
17080;DHT22;8655;57.106;-2.088;2022-11-15T05:55:10;17.20;74.00
17080;DHT22;8655;57.106;-2.088;2022-11-15T05:57:36;17.20;74.00
17080;DHT22;8655;57.106;-2.088;2022-11-15T06:00:04;17.20;74.00
17080;DHT22;8655;57.106;-2.088;2022-11-15T06:02:30;17.20;74.00
17080;DHT22;8655;57.106;-2.088;2022-11-15T06:04:55;17.10;73.90
17080;DHT22;8655;57.106;-2.088;2022-11-15T06:07:21;17.10;73.90
17080;DHT22;8655;57.106;-2.088;2022-11-15T06:09:47;17.20;74.00
17080;DHT22;8655;57.106;-2.088;2022-11-15T06:12:13;17.10;73.90
17080;DHT22;8655;57.106;-2.088;2022-11-15T06:14:38;17.20;74.00
17080;DHT22;8655;57.106;-2.088;2022-11-15T06:17:04;17.20;74.00
17080;DHT22;8655;57.106;-2.088;2022-11-15T06:19:30;17.20;74.00
17080;DHT22;8655;57.106;-2.088;2022-11-15T06:21:59;17.20;74.00
17080;DHT22;8655;57.106;-2.088;2022-11-15T06:24:25;17.10;73.90
17080;DHT22;8655;57.106;-2.088;2022-11-15T06:26:50;17.10;73.90
17080;DHT22;8655;57.106;-2.088;2022-11-15T06:29:16;17.10;73.90
17080;DHT22;8655;57.106;-2.088;2022-11-15T06:31:42;17.10;73.90
17080;DHT22;8655;57.106;-2.088;2022-11-15T06:34:07;17.10;73.90
17080;DHT22;8655;57.106;-2.088;2022-11-15T06:36:36;17.10;73.90
17080;DHT22;8655;57.106;-2.088;2022-11-15T06:39:05;17.10;73.90
17080;DHT22;8655;57.106;-2.088;2022-11-15T06:41:34;17.10;73.90
17080;DHT22;8655;57.106;-2.088;2022-11-15T06:44:00;17.10;73.90
17080;DHT22;8655;57.106;-2.088;2022-11-15T06:46:25;17.10;73.90
17080;DHT22;8655;57.106;-2.088;2022-11-15T06:48:52;17.10;73.90
17080;DHT22;8655;57.106;-2.088;2022-11-15T06:51:17;17.10;73.90
17080;DHT22;8655;57.106;-2.088;2022-11-15T06:53:43;17.10;73.90
17080;DHT22;8655;57.106;-2.088;2022-11-15T06:56:09;17.10;73.90
17080;DHT22;8655;57.106;-2.088;2022-11-15T06:58:35;17.10;74.00
17080;DHT22;8655;57.106;-2.088;2022-11-15T07:01:09;17.10;74.00
17080;DHT22;8655;57.106;-2.088;2022-11-15T07:03:37;17.10;74.00
17080;DHT22;8655;57.106;-2.088;2022-11-15T07:06:03;17.10;74.10
17080;DHT22;8655;57.106;-2.088;2022-11-15T07:08:29;17.10;74.10
17080;DHT22;8655;57.106;-2.088;2022-11-15T07:10:58;17.10;74.20
17080;DHT22;8655;57.106;-2.088;2022-11-15T07:13:26;17.20;74.30
17080;DHT22;8655;57.106;-2.088;2022-11-15T07:15:52;17.20;74.40
17080;DHT22;8655;57.106;-2.088;2022-11-15T07:18:17;17.20;74.40
17080;DHT22;8655;57.106;-2.088;2022-11-15T07:20:43;17.30;74.50
17080;DHT22;8655;57.106;-2.088;2022-11-15T07:23:09;17.30;74.50
17080;DHT22;8655;57.106;-2.088;2022-11-15T07:25:34;17.30;74.50
17080;DHT22;8655;57.106;-2.088;2022-11-15T07:28:00;17.40;74.60
17080;DHT22;8655;57.106;-2.088;2022-11-15T07:30:27;17.40;74.60
17080;DHT22;8655;57.106;-2.088;2022-11-15T07:32:54;17.50;74.80
17080;DHT22;8655;57.106;-2.088;2022-11-15T07:35:20;17.50;74.80
17080;DHT22;8655;57.106;-2.088;2022-11-15T07:37:56;17.60;74.80
17080;DHT22;8655;57.106;-2.088;2022-11-15T07:40:22;17.60;74.80
17080;DHT22;8655;57.106;-2.088;2022-11-15T07:42:48;17.60;74.80
17080;DHT22;8655;57.106;-2.088;2022-11-15T07:45:24;17.70;74.90
17080;DHT22;8655;57.106;-2.088;2022-11-15T07:47:52;17.70;74.90
17080;DHT22;8655;57.106;-2.088;2022-11-15T07:50:18;17.70;74.90
17080;DHT22;8655;57.106;-2.088;2022-11-15T07:52:44;17.80;74.90
17080;DHT22;8655;57.106;-2.088;2022-11-15T07:55:11;17.80;74.90
17080;DHT22;8655;57.106;-2.088;2022-11-15T07:57:37;17.80;74.90
17080;DHT22;8655;57.106;-2.088;2022-11-15T08:00:04;17.80;74.90
17080;DHT22;8655;57.106;-2.088;2022-11-15T08:02:30;17.90;75.00
17080;DHT22;8655;57.106;-2.088;2022-11-15T08:04:56;17.90;75.00
17080;DHT22;8655;57.106;-2.088;2022-11-15T08:07:22;17.90;75.00
17080;DHT22;8655;57.106;-2.088;2022-11-15T08:09:48;17.90;75.00
17080;DHT22;8655;57.106;-2.088;2022-11-15T08:12:14;17.90;75.00
17080;DHT22;8655;57.106;-2.088;2022-11-15T08:14:40;17.90;75.00
17080;DHT22;8655;57.106;-2.088;2022-11-15T08:17:05;17.90;75.00
17080;DHT22;8655;57.106;-2.088;2022-11-15T08:19:31;17.90;75.00
17080;DHT22;8655;57.106;-2.088;2022-11-15T08:21:57;17.90;75.10
17080;DHT22;8655;57.106;-2.088;2022-11-15T08:24:23;17.90;75.00
17080;DHT22;8655;57.106;-2.088;2022-11-15T08:26:49;18.00;75.20
17080;DHT22;8655;57.106;-2.088;2022-11-15T08:29:14;18.00;75.20
17080;DHT22;8655;57.106;-2.088;2022-11-15T08:31:40;18.00;75.20
17080;DHT22;8655;57.106;-2.088;2022-11-15T08:34:06;18.00;75.20
17080;DHT22;8655;57.106;-2.088;2022-11-15T08:36:32;18.00;75.20
17080;DHT22;8655;57.106;-2.088;2022-11-15T08:38:57;18.00;75.20
17080;DHT22;8655;57.106;-2.088;2022-11-15T08:41:41;17.90;75.10
17080;DHT22;8655;57.106;-2.088;2022-11-15T08:44:07;18.00;75.20
17080;DHT22;8655;57.106;-2.088;2022-11-15T08:46:33;17.90;75.10
17080;DHT22;8655;57.106;-2.088;2022-11-15T08:48:58;17.90;75.10
17080;DHT22;8655;57.106;-2.088;2022-11-15T08:51:24;17.90;75.10
17080;DHT22;8655;57.106;-2.088;2022-11-15T08:53:50;17.90;75.10
17080;DHT22;8655;57.106;-2.088;2022-11-15T08:56:15;17.90;75.10
17080;DHT22;8655;57.106;-2.088;2022-11-15T08:58:41;17.90;75.10
17080;DHT22;8655;57.106;-2.088;2022-11-15T09:01:15;17.90;75.10
17080;DHT22;8655;57.106;-2.088;2022-11-15T09:03:42;17.90;75.20
17080;DHT22;8655;57.106;-2.088;2022-11-15T09:06:07;17.90;75.20
17080;DHT22;8655;57.106;-2.088;2022-11-15T09:08:34;17.90;75.20
17080;DHT22;8655;57.106;-2.088;2022-11-15T09:11:06;17.90;75.20
17080;DHT22;8655;57.106;-2.088;2022-11-15T09:13:33;17.90;75.20
17080;DHT22;8655;57.106;-2.088;2022-11-15T09:16:00;17.90;75.20
17080;DHT22;8655;57.106;-2.088;2022-11-15T09:18:26;17.90;75.20
17080;DHT22;8655;57.106;-2.088;2022-11-15T09:20:58;17.90;75.20
17080;DHT22;8655;57.106;-2.088;2022-11-15T09:23:25;17.90;75.20
17080;DHT22;8655;57.106;-2.088;2022-11-15T09:25:52;17.90;75.30
17080;DHT22;8655;57.106;-2.088;2022-11-15T09:28:18;17.90;75.30
17080;DHT22;8655;57.106;-2.088;2022-11-15T09:30:44;17.90;75.20
17080;DHT22;8655;57.106;-2.088;2022-11-15T09:33:11;17.90;75.20
17080;DHT22;8655;57.106;-2.088;2022-11-15T09:35:37;17.80;75.10
17080;DHT22;8655;57.106;-2.088;2022-11-15T09:38:03;17.90;75.20
17080;DHT22;8655;57.106;-2.088;2022-11-15T09:40:31;17.80;75.10
17080;DHT22;8655;57.106;-2.088;2022-11-15T09:48:13;17.80;75.10
17080;DHT22;8655;57.106;-2.088;2022-11-15T09:50:47;17.80;75.10
17080;DHT22;8655;57.106;-2.088;2022-11-15T09:54:00;17.80;75.10
17080;DHT22;8655;57.106;-2.088;2022-11-15T09:56:26;17.80;75.10
17080;DHT22;8655;57.106;-2.088;2022-11-15T10:01:34;17.80;75.10
17080;DHT22;8655;57.106;-2.088;2022-11-15T10:04:01;17.80;75.10
17080;DHT22;8655;57.106;-2.088;2022-11-15T10:06:27;17.80;75.10
17080;DHT22;8655;57.106;-2.088;2022-11-15T10:09:09;17.80;75.10
17080;DHT22;8655;57.106;-2.088;2022-11-15T10:11:37;17.80;75.10
17080;DHT22;8655;57.106;-2.088;2022-11-15T10:14:20;17.80;75.10
17080;DHT22;8655;57.106;-2.088;2022-11-15T10:20:29;17.80;75.10
17080;DHT22;8655;57.106;-2.088;2022-11-15T10:22:59;17.80;75.00
17080;DHT22;8655;57.106;-2.088;2022-11-15T10:25:29;17.80;75.10
17080;DHT22;8655;57.106;-2.088;2022-11-15T10:27:56;17.80;75.10
17080;DHT22;8655;57.106;-2.088;2022-11-15T10:30:29;17.80;75.10
17080;DHT22;8655;57.106;-2.088;2022-11-15T10:32:55;17.70;75.00
17080;DHT22;8655;57.106;-2.088;2022-11-15T10:35:29;17.70;75.00
17080;DHT22;8655;57.106;-2.088;2022-11-15T10:38:09;17.80;75.10
17080;DHT22;8655;57.106;-2.088;2022-11-15T10:40:36;17.70;75.00
17080;DHT22;8655;57.106;-2.088;2022-11-15T10:45:39;17.70;75.00
17080;DHT22;8655;57.106;-2.088;2022-11-15T10:50:37;17.80;75.10
17080;DHT22;8655;57.106;-2.088;2022-11-15T10:53:03;17.70;75.00
17080;DHT22;8655;57.106;-2.088;2022-11-15T10:55:31;17.70;75.00
17080;DHT22;8655;57.106;-2.088;2022-11-15T10:58:20;17.70;75.00
17080;DHT22;8655;57.106;-2.088;2022-11-15T11:00:46;17.70;75.00
17080;DHT22;8655;57.106;-2.088;2022-11-15T11:04:07;17.70;75.00
17080;DHT22;8655;57.106;-2.088;2022-11-15T11:06:56;17.70;75.00
17080;DHT22;8655;57.106;-2.088;2022-11-15T11:09:35;17.70;74.90
17080;DHT22;8655;57.106;-2.088;2022-11-15T11:12:03;17.70;75.00
17080;DHT22;8655;57.106;-2.088;2022-11-15T11:14:30;17.70;75.00
17080;DHT22;8655;57.106;-2.088;2022-11-15T11:20:02;17.70;75.00
17080;DHT22;8655;57.106;-2.088;2022-11-15T11:28:39;17.70;75.00
17080;DHT22;8655;57.106;-2.088;2022-11-15T11:33:23;17.70;75.00
17080;DHT22;8655;57.106;-2.088;2022-11-15T11:36:32;17.70;75.00
17080;DHT22;8655;57.106;-2.088;2022-11-15T11:47:23;17.70;75.00
17080;DHT22;8655;57.106;-2.088;2022-11-15T11:49:52;17.70;75.00
17080;DHT22;8655;57.106;-2.088;2022-11-15T11:52:28;17.70;75.00
17080;DHT22;8655;57.106;-2.088;2022-11-15T11:55:18;17.70;75.00
17080;DHT22;8655;57.106;-2.088;2022-11-15T12:00:41;17.70;75.00
17080;DHT22;8655;57.106;-2.088;2022-11-15T12:03:14;17.70;75.00
17080;DHT22;8655;57.106;-2.088;2022-11-15T12:06:00;17.70;75.00
17080;DHT22;8655;57.106;-2.088;2022-11-15T12:08:40;17.60;74.90
17080;DHT22;8655;57.106;-2.088;2022-11-15T12:11:18;17.60;74.90
17080;DHT22;8655;57.106;-2.088;2022-11-15T12:13:49;17.60;75.00
17080;DHT22;8655;57.106;-2.088;2022-11-15T12:16:23;17.60;75.00
17080;DHT22;8655;57.106;-2.088;2022-11-15T12:18:53;17.70;75.10
17080;DHT22;8655;57.106;-2.088;2022-11-15T12:26:42;17.60;74.90
17080;DHT22;8655;57.106;-2.088;2022-11-15T12:31:59;17.60;74.90
17080;DHT22;8655;57.106;-2.088;2022-11-15T12:34:31;17.60;74.90
17080;DHT22;8655;57.106;-2.088;2022-11-15T12:37:00;17.60;75.00
17080;DHT22;8655;57.106;-2.088;2022-11-15T12:40:16;17.60;75.00
17080;DHT22;8655;57.106;-2.088;2022-11-15T12:44:57;17.60;74.90
17080;DHT22;8655;57.106;-2.088;2022-11-15T12:47:25;17.60;74.90
17080;DHT22;8655;57.106;-2.088;2022-11-15T12:49:52;17.60;75.00
17080;DHT22;8655;57.106;-2.088;2022-11-15T12:52:18;17.60;75.00
17080;DHT22;8655;57.106;-2.088;2022-11-15T12:54:52;17.60;75.00
17080;DHT22;8655;57.106;-2.088;2022-11-15T12:57:34;17.60;75.00
17080;DHT22;8655;57.106;-2.088;2022-11-15T13:02:39;17.60;75.00
17080;DHT22;8655;57.106;-2.088;2022-11-15T13:13:08;17.60;75.00
17080;DHT22;8655;57.106;-2.088;2022-11-15T13:18:38;17.60;74.90
17080;DHT22;8655;57.106;-2.088;2022-11-15T13:21:18;17.60;74.90
17080;DHT22;8655;57.106;-2.088;2022-11-15T13:24:02;17.60;75.00
17080;DHT22;8655;57.106;-2.088;2022-11-15T13:26:28;17.60;75.00
17080;DHT22;8655;57.106;-2.088;2022-11-15T13:28:54;17.60;75.00
17080;DHT22;8655;57.106;-2.088;2022-11-15T13:31:36;17.60;75.00
17080;DHT22;8655;57.106;-2.088;2022-11-15T13:34:30;17.60;75.00
17080;DHT22;8655;57.106;-2.088;2022-11-15T13:37:02;17.60;75.00
17080;DHT22;8655;57.106;-2.088;2022-11-15T13:39:30;17.60;74.90
17080;DHT22;8655;57.106;-2.088;2022-11-15T13:41:56;17.60;75.00
17080;DHT22;8655;57.106;-2.088;2022-11-15T13:44:24;17.60;75.00
17080;DHT22;8655;57.106;-2.088;2022-11-15T13:49:32;17.60;75.00
17080;DHT22;8655;57.106;-2.088;2022-11-15T13:52:00;17.60;75.00
17080;DHT22;8655;57.106;-2.088;2022-11-15T13:54:50;17.60;75.00
17080;DHT22;8655;57.106;-2.088;2022-11-15T14:02:18;17.60;74.90
17080;DHT22;8655;57.106;-2.088;2022-11-15T14:04:56;17.60;74.90
17080;DHT22;8655;57.106;-2.088;2022-11-15T14:07:25;17.60;74.90
17080;DHT22;8655;57.106;-2.088;2022-11-15T14:09:53;17.60;74.90
17080;DHT22;8655;57.106;-2.088;2022-11-15T14:14:53;17.60;75.00
17080;DHT22;8655;57.106;-2.088;2022-11-15T14:17:35;17.60;75.00
17080;DHT22;8655;57.106;-2.088;2022-11-15T14:20:01;17.60;74.90
17080;DHT22;8655;57.106;-2.088;2022-11-15T14:22:29;17.60;74.90
17080;DHT22;8655;57.106;-2.088;2022-11-15T14:25:13;17.60;74.90
17080;DHT22;8655;57.106;-2.088;2022-11-15T14:27:41;17.60;74.90
17080;DHT22;8655;57.106;-2.088;2022-11-15T14:30:16;17.50;74.80
17080;DHT22;8655;57.106;-2.088;2022-11-15T14:32:50;17.60;74.90
17080;DHT22;8655;57.106;-2.088;2022-11-15T14:35:18;17.60;74.90
17080;DHT22;8655;57.106;-2.088;2022-11-15T14:37:45;17.60;74.90
17080;DHT22;8655;57.106;-2.088;2022-11-15T14:40:14;17.50;74.80
17080;DHT22;8655;57.106;-2.088;2022-11-15T14:42:40;17.50;74.80
17080;DHT22;8655;57.106;-2.088;2022-11-15T14:45:17;17.60;75.00
17080;DHT22;8655;57.106;-2.088;2022-11-15T14:47:43;17.60;74.90
17080;DHT22;8655;57.106;-2.088;2022-11-15T14:50:13;17.50;74.80
17080;DHT22;8655;57.106;-2.088;2022-11-15T14:52:39;17.60;74.90
17080;DHT22;8655;57.106;-2.088;2022-11-15T14:55:16;17.60;74.90
17080;DHT22;8655;57.106;-2.088;2022-11-15T14:57:43;17.50;74.80
17080;DHT22;8655;57.106;-2.088;2022-11-15T15:00:11;17.50;74.80
17080;DHT22;8655;57.106;-2.088;2022-11-15T15:02:37;17.60;75.00
17080;DHT22;8655;57.106;-2.088;2022-11-15T15:05:34;17.60;75.00
17080;DHT22;8655;57.106;-2.088;2022-11-15T15:08:00;17.50;74.80
17080;DHT22;8655;57.106;-2.088;2022-11-15T15:10:41;17.50;74.80
17080;DHT22;8655;57.106;-2.088;2022-11-15T15:13:16;17.50;74.80
17080;DHT22;8655;57.106;-2.088;2022-11-15T15:15:42;17.50;74.80
17080;DHT22;8655;57.106;-2.088;2022-11-15T15:18:07;17.50;74.80
17080;DHT22;8655;57.106;-2.088;2022-11-15T15:20:35;17.50;74.80
17080;DHT22;8655;57.106;-2.088;2022-11-15T15:23:03;17.50;74.80
17080;DHT22;8655;57.106;-2.088;2022-11-15T15:25:33;17.50;74.80
17080;DHT22;8655;57.106;-2.088;2022-11-15T15:28:00;17.50;74.80
17080;DHT22;8655;57.106;-2.088;2022-11-15T15:30:29;17.50;74.80
17080;DHT22;8655;57.106;-2.088;2022-11-15T15:32:55;17.50;74.90
17080;DHT22;8655;57.106;-2.088;2022-11-15T15:35:21;17.50;74.80
17080;DHT22;8655;57.106;-2.088;2022-11-15T15:37:48;17.50;74.80
17080;DHT22;8655;57.106;-2.088;2022-11-15T15:40:15;17.50;74.80
17080;DHT22;8655;57.106;-2.088;2022-11-15T15:42:41;17.50;74.80
17080;DHT22;8655;57.106;-2.088;2022-11-15T15:45:08;17.50;74.80
17080;DHT22;8655;57.106;-2.088;2022-11-15T15:47:34;17.50;74.80
17080;DHT22;8655;57.106;-2.088;2022-11-15T15:50:01;17.50;74.80
17080;DHT22;8655;57.106;-2.088;2022-11-15T15:52:26;17.50;74.80
17080;DHT22;8655;57.106;-2.088;2022-11-15T15:54:52;17.50;74.80
17080;DHT22;8655;57.106;-2.088;2022-11-15T15:57:18;17.50;74.80
17080;DHT22;8655;57.106;-2.088;2022-11-15T15:59:44;17.50;74.80
17080;DHT22;8655;57.106;-2.088;2022-11-15T16:02:12;17.50;74.80
17080;DHT22;8655;57.106;-2.088;2022-11-15T16:04:39;17.50;74.80
17080;DHT22;8655;57.106;-2.088;2022-11-15T16:07:04;17.50;74.80
17080;DHT22;8655;57.106;-2.088;2022-11-15T16:09:30;17.50;74.80
17080;DHT22;8655;57.106;-2.088;2022-11-15T16:12:14;17.50;74.80
17080;DHT22;8655;57.106;-2.088;2022-11-15T16:14:42;17.50;74.80
17080;DHT22;8655;57.106;-2.088;2022-11-15T16:17:20;17.50;74.80
17080;DHT22;8655;57.106;-2.088;2022-11-15T16:19:47;17.50;74.80
17080;DHT22;8655;57.106;-2.088;2022-11-15T16:22:12;17.50;74.80
17080;DHT22;8655;57.106;-2.088;2022-11-15T16:24:38;17.50;74.80
17080;DHT22;8655;57.106;-2.088;2022-11-15T16:27:04;17.50;74.80
17080;DHT22;8655;57.106;-2.088;2022-11-15T16:29:29;17.50;74.80
17080;DHT22;8655;57.106;-2.088;2022-11-15T16:31:55;17.50;74.80
17080;DHT22;8655;57.106;-2.088;2022-11-15T16:34:21;17.50;74.80
17080;DHT22;8655;57.106;-2.088;2022-11-15T16:36:47;17.50;74.80
17080;DHT22;8655;57.106;-2.088;2022-11-15T16:39:13;17.50;74.80
17080;DHT22;8655;57.106;-2.088;2022-11-15T16:41:41;17.50;74.80
17080;DHT22;8655;57.106;-2.088;2022-11-15T16:44:08;17.50;74.80
17080;DHT22;8655;57.106;-2.088;2022-11-15T16:46:34;17.50;74.80
17080;DHT22;8655;57.106;-2.088;2022-11-15T16:49:00;17.50;74.80
17080;DHT22;8655;57.106;-2.088;2022-11-15T16:51:25;17.50;74.80
17080;DHT22;8655;57.106;-2.088;2022-11-15T16:53:51;17.50;74.80
17080;DHT22;8655;57.106;-2.088;2022-11-15T16:56:26;17.40;74.80
17080;DHT22;8655;57.106;-2.088;2022-11-15T16:58:53;17.50;74.90
17080;DHT22;8655;57.106;-2.088;2022-11-15T17:01:24;17.50;74.90
17080;DHT22;8655;57.106;-2.088;2022-11-15T17:03:50;17.40;74.80
17080;DHT22;8655;57.106;-2.088;2022-11-15T17:06:17;17.40;74.80
17080;DHT22;8655;57.106;-2.088;2022-11-15T17:08:44;17.40;74.80
17080;DHT22;8655;57.106;-2.088;2022-11-15T17:11:13;17.40;74.80
17080;DHT22;8655;57.106;-2.088;2022-11-15T17:13:39;17.50;74.80
17080;DHT22;8655;57.106;-2.088;2022-11-15T17:16:07;17.40;74.80
17080;DHT22;8655;57.106;-2.088;2022-11-15T17:18:34;17.40;74.80
17080;DHT22;8655;57.106;-2.088;2022-11-15T17:21:20;17.40;74.80
17080;DHT22;8655;57.106;-2.088;2022-11-15T17:23:46;17.40;74.80
17080;DHT22;8655;57.106;-2.088;2022-11-15T17:26:14;17.40;74.80